createdAt,value
2022-11-03T00:01:39.333Z,25.20
2022-11-03T00:04:07.729Z,25.90
2022-11-03T00:06:34.446Z,19.33
2022-11-03T00:09:03.199Z,27.55
2022-11-03T00:11:33.843Z,20.33
2022-11-03T00:14:01.182Z,20.42
2022-11-03T00:16:27.637Z,23.65
2022-11-03T00:18:54.460Z,25.17
2022-11-03T00:21:20.805Z,19.95
2022-11-03T00:23:47.469Z,23.85
2022-11-03T00:26:21.885Z,21.65
2022-11-03T00:28:50.758Z,21.30
2022-11-03T00:31:18.325Z,20.95
2022-11-03T00:33:45.626Z,19.80
2022-11-03T00:36:14.722Z,23.50
2022-11-03T00:38:41.263Z,21.52
2022-11-03T00:41:07.642Z,25.52
2022-11-03T00:43:35.382Z,23.15
2022-11-03T00:46:01.949Z,29.27
2022-11-03T00:48:31.903Z,27.00
2022-11-03T00:51:12.198Z,28.88
2022-11-03T00:53:47.382Z,27.45
2022-11-03T00:56:25.683Z,28.55
2022-11-03T00:58:53.088Z,27.88
2022-11-03T01:01:24.885Z,27.98
2022-11-03T01:04:12.935Z,25.40
2022-11-03T01:06:50.617Z,25.10
2022-11-03T01:09:25.970Z,24.58
2022-11-03T01:12:00.180Z,23.23
2022-11-03T01:14:37.075Z,22.55
2022-11-03T01:17:08.587Z,23.02
2022-11-03T01:19:35.012Z,23.80
2022-11-03T01:22:02.659Z,23.55
2022-11-03T01:24:31.613Z,26.75
2022-11-03T01:26:58.123Z,24.25
2022-11-03T01:29:24.512Z,24.67
2022-11-03T01:31:51.043Z,23.35
2022-11-03T01:34:19.614Z,23.70
2022-11-03T01:36:46.496Z,24.13
2022-11-03T01:39:14.635Z,22.20
2022-11-03T01:41:43.043Z,24.58
2022-11-03T01:44:09.288Z,23.13
2022-11-03T01:46:41.280Z,21.70
2022-11-03T01:49:16.971Z,22.42
2022-11-03T01:51:50.072Z,25.52
2022-11-03T01:54:21.440Z,22.83
2022-11-03T01:56:48.071Z,23.73
2022-11-03T01:59:16.758Z,23.67
2022-11-03T02:01:45.369Z,22.73
2022-11-03T02:04:27.009Z,22.48
2022-11-03T02:07:03.263Z,23.50
2022-11-03T02:09:31.085Z,22.67
2022-11-03T02:12:06.664Z,21.95
2022-11-03T02:14:34.983Z,23.85
2022-11-03T02:17:05.976Z,21.63
2022-11-03T02:19:47.223Z,23.85
2022-11-03T02:22:32.061Z,21.40
2022-11-03T02:25:05.404Z,20.48
2022-11-03T02:27:31.860Z,20.90
2022-11-03T02:29:58.878Z,21.67
2022-11-03T02:32:33.550Z,20.20
2022-11-03T02:35:12.269Z,23.05
2022-11-03T02:37:44.528Z,19.15
2022-11-03T02:40:18.968Z,20.08
2022-11-03T02:42:48.779Z,22.17
2022-11-03T02:45:18.925Z,21.75
2022-11-03T02:47:46.591Z,20.30
2022-11-03T02:50:13.481Z,19.33
2022-11-03T02:52:46.087Z,19.88
2022-11-03T02:55:20.582Z,21.50
2022-11-03T02:57:54.020Z,18.85
2022-11-03T03:00:20.857Z,21.37
2022-11-03T03:02:57.324Z,18.65
2022-11-03T03:05:27.419Z,20.80
2022-11-03T03:08:00.789Z,21.80
2022-11-03T03:10:32.436Z,22.73
2022-11-03T03:13:00.566Z,22.13
2022-11-03T03:15:38.730Z,20.75
2022-11-03T03:18:42.170Z,21.30
2022-11-03T03:21:15.207Z,19.70
2022-11-03T03:23:49.819Z,20.13
2022-11-03T03:26:25.815Z,20.98
2022-11-03T03:29:26.827Z,21.33
2022-11-03T03:31:57.688Z,21.63
2022-11-03T03:34:35.776Z,22.20
2022-11-03T03:37:05.145Z,21.13
2022-11-03T03:39:36.149Z,20.05
2022-11-03T03:42:04.757Z,20.77
2022-11-03T03:44:32.658Z,27.83
2022-11-03T03:47:02.238Z,23.73
2022-11-03T03:49:28.773Z,19.67
2022-11-03T03:51:55.100Z,24.65
2022-11-03T03:54:21.427Z,20.88
2022-11-03T03:56:59.217Z,26.70
2022-11-03T03:59:25.562Z,20.88
2022-11-03T04:01:52.035Z,22.67
2022-11-03T04:04:18.468Z,23.77
2022-11-03T04:06:44.798Z,25.67
2022-11-03T04:09:11.352Z,27.20
2022-11-03T04:11:56.132Z,30.05
2022-11-03T04:14:40.939Z,22.25
2022-11-03T04:17:38.017Z,24.90
2022-11-03T04:20:31.073Z,21.67
2022-11-03T04:22:57.480Z,29.63
2022-11-03T04:25:23.809Z,26.95
2022-11-03T04:27:50.131Z,24.55
2022-11-03T04:30:20.926Z,30.30
2022-11-03T04:32:49.751Z,25.20
2022-11-03T04:35:27.548Z,28.40
2022-11-03T04:38:02.074Z,33.95
2022-11-03T04:40:29.069Z,28.77
2022-11-03T04:42:56.012Z,25.25
2022-11-03T04:45:25.963Z,30.15
2022-11-03T04:47:52.984Z,25.42
2022-11-03T04:50:21.236Z,26.00
2022-11-03T04:52:48.872Z,28.80
2022-11-03T04:55:18.247Z,35.30
2022-11-03T04:57:45.352Z,30.38
2022-11-03T05:00:19.464Z,35.28
2022-11-03T05:02:51.530Z,39.80
2022-11-03T05:05:23.246Z,35.10
2022-11-03T05:07:53.284Z,39.65
2022-11-03T05:10:24.110Z,50.50
2022-11-03T05:12:51.604Z,41.53
2022-11-03T05:15:23.744Z,42.10
2022-11-03T05:17:50.185Z,33.88
2022-11-03T05:20:40.410Z,42.88
2022-11-03T05:23:10.955Z,32.42
2022-11-03T05:25:41.039Z,33.92
2022-11-03T05:28:27.761Z,43.63
2022-11-03T05:30:54.869Z,41.80
2022-11-03T05:33:29.301Z,38.67
2022-11-03T05:35:59.501Z,45.08
2022-11-03T05:38:29.018Z,50.30
2022-11-03T05:40:55.319Z,38.03
2022-11-03T05:43:21.833Z,35.22
2022-11-03T05:45:55.499Z,46.83
2022-11-03T05:48:35.078Z,45.55
2022-11-03T05:51:10.589Z,32.65
2022-11-03T05:53:43.234Z,33.08
2022-11-03T05:56:18.673Z,36.60
2022-11-03T05:58:46.134Z,35.92
2022-11-03T06:01:31.366Z,34.35
2022-11-03T06:04:18.669Z,35.00
2022-11-03T06:06:55.576Z,32.83
2022-11-03T06:09:25.109Z,42.05
2022-11-03T06:11:56.167Z,34.83
2022-11-03T06:14:25.253Z,41.72
2022-11-03T06:16:56.709Z,41.28
2022-11-03T06:19:31.252Z,34.08
2022-11-03T06:22:02.543Z,41.30
2022-11-03T06:24:31.750Z,45.03
2022-11-03T06:26:58.687Z,37.30
2022-11-03T06:29:25.170Z,34.60
2022-11-03T06:31:56.079Z,38.60
2022-11-03T06:34:37.129Z,37.05
2022-11-03T06:37:19.046Z,37.90
2022-11-03T06:39:46.027Z,34.72
2022-11-03T06:42:14.628Z,32.70
2022-11-03T06:44:44.018Z,38.50
2022-11-03T06:47:32.449Z,40.60
2022-11-03T06:50:00.126Z,32.03
2022-11-03T06:52:28.737Z,40.72
2022-11-03T06:55:01.794Z,42.58
2022-11-03T06:57:32.059Z,42.42
2022-11-03T07:00:13.435Z,41.28
2022-11-03T07:03:14.526Z,39.97
2022-11-03T07:05:41.735Z,36.05
2022-11-03T07:08:28.466Z,37.55
2022-11-03T07:11:02.639Z,41.03
2022-11-03T07:13:31.664Z,43.08
2022-11-03T07:15:58.224Z,40.97
2022-11-03T07:18:44.044Z,32.67
2022-11-03T07:21:27.192Z,38.67
2022-11-03T07:23:53.797Z,40.78
2022-11-03T07:26:20.154Z,40.72
2022-11-03T07:28:48.364Z,37.40
2022-11-03T07:31:25.027Z,43.40
2022-11-03T07:33:58.068Z,45.05
2022-11-03T07:36:27.309Z,47.20
2022-11-03T07:38:56.331Z,39.90
2022-11-03T07:41:31.136Z,38.90
2022-11-03T07:44:01.611Z,35.80
2022-11-03T07:46:27.953Z,35.08
2022-11-03T07:48:59.080Z,37.28
2022-11-03T07:51:32.436Z,39.83
2022-11-03T07:54:20.584Z,44.28
2022-11-03T07:56:57.072Z,34.67
2022-11-03T07:59:31.059Z,38.20
2022-11-03T08:01:58.880Z,35.35
2022-11-03T08:04:28.621Z,33.95
2022-11-03T08:06:55.183Z,33.53
2022-11-03T08:09:21.828Z,32.85
2022-11-03T08:11:49.226Z,34.30
2022-11-03T08:14:15.734Z,39.47
2022-11-03T08:16:42.481Z,40.88
2022-11-03T08:19:09.203Z,35.50
2022-11-03T08:21:35.608Z,32.80
2022-11-03T08:24:02.035Z,34.10
2022-11-03T08:26:28.869Z,32.38
2022-11-03T08:28:55.289Z,33.40
2022-11-03T08:31:21.616Z,31.02
2022-11-03T08:33:47.942Z,28.38
2022-11-03T08:36:14.339Z,28.33
2022-11-03T08:38:40.781Z,27.55
2022-11-03T08:41:07.157Z,32.38
2022-11-03T08:43:33.561Z,28.10
2022-11-03T08:46:08.166Z,31.00
2022-11-03T08:48:42.045Z,28.90
2022-11-03T08:51:10.139Z,29.13
2022-11-03T08:53:36.495Z,30.30
2022-11-03T08:56:02.812Z,36.00
2022-11-03T08:58:29.154Z,29.80
2022-11-03T09:00:55.454Z,30.45
2022-11-03T09:03:21.836Z,30.50
2022-11-03T09:05:48.510Z,28.98
2022-11-03T09:11:01.127Z,31.42
2022-11-03T09:13:27.784Z,31.52
2022-11-03T09:15:54.110Z,32.55
2022-11-03T09:18:20.420Z,30.75
2022-11-03T09:20:46.755Z,30.73
2022-11-03T09:23:13.080Z,31.52
2022-11-03T09:25:39.416Z,31.63
2022-11-03T09:28:06.063Z,27.35
2022-11-03T09:30:32.713Z,26.65
2022-11-03T09:32:59.050Z,26.40
2022-11-03T09:35:25.371Z,23.90
2022-11-03T09:37:51.706Z,24.35
2022-11-03T09:40:19.549Z,20.10
2022-11-03T09:42:45.869Z,22.20
2022-11-03T09:45:12.311Z,21.75
2022-11-03T09:47:41.464Z,21.45
2022-11-03T09:50:14.924Z,22.63
2022-11-03T09:52:41.362Z,23.50
2022-11-03T09:55:17.336Z,21.88
2022-11-03T09:57:45.495Z,18.10
2022-11-03T10:00:20.877Z,20.23
2022-11-03T10:02:48.196Z,18.73
2022-11-03T10:05:19.350Z,17.98
2022-11-03T10:07:45.988Z,19.52
2022-11-03T10:10:18.731Z,18.35
2022-11-03T10:12:46.531Z,20.50
2022-11-03T10:15:17.526Z,19.40
2022-11-03T10:17:45.071Z,20.65
2022-11-03T10:20:16.957Z,19.95
2022-11-03T10:22:45.386Z,19.02
2022-11-03T10:25:39.208Z,19.48
2022-11-03T10:28:23.387Z,18.63
2022-11-03T10:33:40.358Z,19.42
2022-11-03T10:36:24.057Z,20.23
2022-11-03T10:38:50.597Z,18.20
2022-11-03T10:41:28.184Z,18.92
2022-11-03T10:44:02.159Z,21.40
2022-11-03T10:46:49.036Z,18.23
2022-11-03T10:49:19.027Z,19.88
2022-11-03T10:51:49.247Z,16.80
2022-11-03T10:54:18.375Z,17.60
2022-11-03T10:56:46.520Z,18.75
2022-11-03T10:59:21.362Z,19.50
2022-11-03T11:01:48.412Z,16.58
2022-11-03T11:04:19.905Z,17.08
2022-11-03T11:06:46.911Z,15.27
2022-11-03T11:09:20.291Z,14.88
2022-11-03T11:12:13.014Z,16.27
2022-11-03T11:14:52.573Z,14.90
2022-11-03T11:17:49.474Z,16.45
2022-11-03T11:20:21.279Z,15.43
2022-11-03T11:22:49.537Z,14.98
2022-11-03T11:25:18.379Z,15.45
2022-11-03T11:27:44.719Z,15.35
2022-11-03T11:30:20.162Z,14.52
2022-11-03T11:32:46.505Z,14.57
2022-11-03T11:35:23.665Z,15.20
2022-11-03T11:37:50.001Z,15.60
2022-11-03T11:40:25.377Z,14.73
2022-11-03T11:43:07.400Z,14.73
2022-11-03T11:46:11.687Z,18.05
2022-11-03T11:48:38.155Z,14.90
2022-11-03T11:51:10.376Z,15.50
2022-11-03T11:53:44.853Z,15.30
2022-11-03T11:56:16.316Z,16.15
2022-11-03T11:58:48.980Z,15.48
2022-11-03T12:01:30.927Z,20.35
2022-11-03T12:04:00.482Z,14.30
2022-11-03T12:06:41.124Z,15.38
2022-11-03T12:09:27.981Z,14.35
2022-11-03T12:12:06.853Z,14.68
2022-11-03T12:14:39.030Z,14.95
2022-11-03T12:17:18.051Z,11.88
2022-11-03T12:19:49.847Z,13.32
2022-11-03T12:22:26.089Z,13.75
2022-11-03T12:24:58.617Z,13.70
2022-11-03T12:27:24.893Z,14.20
2022-11-03T12:29:58.026Z,13.30
2022-11-03T12:32:33.588Z,13.57
2022-11-03T12:35:05.524Z,12.88
2022-11-03T12:37:32.077Z,13.02
2022-11-03T12:39:58.390Z,13.77
2022-11-03T12:42:25.252Z,13.35
2022-11-03T12:44:52.296Z,14.68
2022-11-03T12:47:20.010Z,12.45
2022-11-03T12:49:46.340Z,11.98
2022-11-03T12:52:12.659Z,14.20
2022-11-03T12:54:39.597Z,12.10
2022-11-03T12:57:05.946Z,13.10
2022-11-03T12:59:32.382Z,14.43
2022-11-03T13:01:58.895Z,15.00
2022-11-03T13:04:25.385Z,14.48
2022-11-03T13:06:51.716Z,14.07
2022-11-03T13:09:18.206Z,15.30
2022-11-03T13:12:02.847Z,15.00
2022-11-03T13:14:29.195Z,13.68
2022-11-03T13:16:55.518Z,14.10
2022-11-03T13:19:22.363Z,14.82
2022-11-03T13:21:48.738Z,13.90
2022-11-03T13:24:15.054Z,14.70
2022-11-03T13:26:41.395Z,13.32
2022-11-03T13:29:07.730Z,14.70
2022-11-03T13:31:34.350Z,14.43
2022-11-03T13:34:00.672Z,14.05
2022-11-03T13:36:27.059Z,13.68
2022-11-03T13:38:53.451Z,15.48
2022-11-03T13:41:19.855Z,17.23
2022-11-03T13:43:46.177Z,13.55
2022-11-03T13:46:12.757Z,14.43
2022-11-03T13:51:25.671Z,15.20
2022-11-03T13:59:24.927Z,12.95
2022-11-03T14:07:07.099Z,15.07
2022-11-03T14:09:33.981Z,16.60
2022-11-03T14:12:19.394Z,17.08
2022-11-03T14:14:45.738Z,17.80
2022-11-03T14:17:12.422Z,18.52
2022-11-03T14:19:44.861Z,20.15
2022-11-03T14:22:13.759Z,22.50
2022-11-03T14:24:40.069Z,24.20
2022-11-03T14:27:06.558Z,27.05
2022-11-03T14:29:32.956Z,33.63
2022-11-03T14:31:59.609Z,39.63
2022-11-03T14:34:26.139Z,37.25
2022-11-03T14:36:52.783Z,40.88
2022-11-03T14:39:19.171Z,42.47
2022-11-03T14:42:03.650Z,40.75
2022-11-03T14:44:35.539Z,47.00
2022-11-03T14:47:03.839Z,52.85
2022-11-03T14:49:31.468Z,66.85
2022-11-03T14:51:59.502Z,65.07
2022-11-03T14:54:26.389Z,71.32
2022-11-03T14:56:53.734Z,74.35
2022-11-03T14:59:20.994Z,67.88
2022-11-03T15:01:48.901Z,72.15
2022-11-03T15:04:15.358Z,73.20
2022-11-03T15:06:41.799Z,64.38
2022-11-03T15:11:35.810Z,71.25
2022-11-03T15:14:04.976Z,78.03
2022-11-03T15:16:31.620Z,82.13
2022-11-03T15:18:59.076Z,77.45
2022-11-03T15:21:25.398Z,73.63
2022-11-03T15:26:38.028Z,81.50
2022-11-03T15:29:04.352Z,83.05
2022-11-03T15:31:30.864Z,74.43
2022-11-03T15:33:57.217Z,73.90
2022-11-03T15:36:24.197Z,78.68
2022-11-03T15:38:50.579Z,78.03
2022-11-03T15:41:17.038Z,74.28
2022-11-03T15:43:44.789Z,72.55
2022-11-03T15:46:11.547Z,73.15
2022-11-03T15:48:38.805Z,71.80
2022-11-03T15:51:05.581Z,65.53
2022-11-03T15:53:31.996Z,74.28
2022-11-03T15:55:58.510Z,78.03
2022-11-03T15:58:24.900Z,72.43
2022-11-03T16:00:51.402Z,74.97
2022-11-03T16:03:17.975Z,67.93
2022-11-03T16:05:44.330Z,75.07
2022-11-03T16:08:11.110Z,70.10
2022-11-03T16:10:38.139Z,69.55
2022-11-03T16:13:04.496Z,77.13
2022-11-03T16:15:30.785Z,77.85
2022-11-03T16:18:02.511Z,76.50
2022-11-03T16:20:30.556Z,75.90
2022-11-03T16:22:57.046Z,87.75
2022-11-03T16:25:23.934Z,94.07
2022-11-03T16:27:50.561Z,91.38
2022-11-03T16:30:16.942Z,77.03
2022-11-03T16:32:44.729Z,76.00
2022-11-03T16:35:11.188Z,81.10
2022-11-03T16:37:37.512Z,82.75
2022-11-03T16:40:05.301Z,81.75
2022-11-03T16:42:38.162Z,90.20
2022-11-03T16:45:15.158Z,88.78
2022-11-03T16:47:41.473Z,92.72
2022-11-03T16:50:08.233Z,99.13
2022-11-03T16:52:34.567Z,91.70
2022-11-03T16:55:00.945Z,85.75
2022-11-03T16:57:27.253Z,93.63
2022-11-03T16:59:53.703Z,88.38
2022-11-03T17:02:20.363Z,84.07
2022-11-03T17:04:46.750Z,86.13
2022-11-03T17:07:13.132Z,73.10
2022-11-03T17:09:39.548Z,75.47
2022-11-03T17:12:06.086Z,75.25
2022-11-03T17:14:32.431Z,68.75
2022-11-03T17:16:58.728Z,67.07
2022-11-03T17:19:25.142Z,60.67
2022-11-03T17:21:51.469Z,54.72
2022-11-03T17:24:17.830Z,56.15
2022-11-03T17:27:26.425Z,56.28
2022-11-03T17:30:00.230Z,57.13
2022-11-03T17:32:34.338Z,52.60
2022-11-03T17:35:00.806Z,51.78
2022-11-03T17:37:27.886Z,52.08
2022-11-03T17:39:55.655Z,51.00
2022-11-03T17:42:27.290Z,58.55
2022-11-03T17:44:57.153Z,49.83
2022-11-03T17:47:24.425Z,49.42
2022-11-03T17:49:51.059Z,50.50
2022-11-03T17:52:23.441Z,48.83
2022-11-03T17:54:55.593Z,54.97
2022-11-03T17:57:22.855Z,50.63
2022-11-03T17:59:51.040Z,49.22
2022-11-03T18:02:21.521Z,44.08
2022-11-03T18:04:48.787Z,50.83
2022-11-03T18:07:20.267Z,45.08
2022-11-03T18:09:47.406Z,48.85
2022-11-03T18:12:38.666Z,44.53
2022-11-03T18:15:14.054Z,43.92
2022-11-03T18:17:40.834Z,40.97
2022-11-03T18:20:17.644Z,40.05
2022-11-03T18:22:45.034Z,37.90
2022-11-03T18:25:21.137Z,42.15
2022-11-03T18:27:47.948Z,42.78
2022-11-03T18:30:18.340Z,40.40
2022-11-03T18:32:45.766Z,39.28
2022-11-03T18:35:23.930Z,40.03
2022-11-03T18:37:50.797Z,42.65
2022-11-03T18:40:18.800Z,39.20
2022-11-03T18:42:45.166Z,42.05
2022-11-03T18:45:17.295Z,47.63
2022-11-03T18:47:44.685Z,52.95
2022-11-03T18:50:16.379Z,54.15
2022-11-03T18:52:47.613Z,48.25
2022-11-03T18:55:15.928Z,48.25
2022-11-03T18:57:43.084Z,55.25
2022-11-03T19:00:17.478Z,64.47
2022-11-03T19:05:13.844Z,72.38
2022-11-03T19:07:42.126Z,75.70
2022-11-03T19:10:13.025Z,77.22
2022-11-03T19:12:43.157Z,83.32
2022-11-03T19:15:17.802Z,88.60
2022-11-03T19:17:44.385Z,87.70
2022-11-03T19:20:15.440Z,81.22
2022-11-03T19:22:41.834Z,81.53
2022-11-03T19:25:08.498Z,72.28
2022-11-03T19:27:37.680Z,75.13
2022-11-03T19:30:05.243Z,70.93
2022-11-03T19:32:36.790Z,66.13
2022-11-03T19:35:06.901Z,67.88
2022-11-03T19:37:35.760Z,69.55
2022-11-03T19:40:20.534Z,69.80
2022-11-03T19:42:48.563Z,63.17
2022-11-03T19:45:17.661Z,62.58
2022-11-03T19:50:46.078Z,67.97
2022-11-03T19:53:19.965Z,65.47
2022-11-03T19:55:47.016Z,66.05
2022-11-03T19:58:19.653Z,80.28
2022-11-03T20:00:46.876Z,98.20
2022-11-03T20:03:19.799Z,80.28
2022-11-03T20:05:57.220Z,75.18
2022-11-03T20:08:35.516Z,82.22
2022-11-03T20:11:01.891Z,76.95
2022-11-03T20:13:41.034Z,70.57
2022-11-03T20:16:15.857Z,67.18
2022-11-03T20:18:43.803Z,66.72
2022-11-03T20:21:18.964Z,60.13
2022-11-03T20:23:48.512Z,58.85
2022-11-03T20:26:19.393Z,63.00
2022-11-03T20:28:46.348Z,61.33
2022-11-03T20:31:14.288Z,64.72
2022-11-03T20:33:40.680Z,66.78
2022-11-03T20:36:13.973Z,67.57
2022-11-03T20:38:40.370Z,64.55
2022-11-03T20:41:13.998Z,65.70
2022-11-03T20:43:43.837Z,66.32
2022-11-03T20:46:27.866Z,66.72
2022-11-03T20:48:57.662Z,61.40
2022-11-03T20:51:27.276Z,61.85
2022-11-03T20:53:55.687Z,64.50
2022-11-03T20:56:25.121Z,58.63
2022-11-03T20:58:51.916Z,62.47
2022-11-03T21:01:35.864Z,57.45
2022-11-03T21:04:03.408Z,58.85
2022-11-03T21:06:32.040Z,57.42
2022-11-03T21:08:58.960Z,53.83
2022-11-03T21:11:28.818Z,58.95
2022-11-03T21:14:01.102Z,54.88
2022-11-03T21:16:48.345Z,55.03
2022-11-03T21:19:36.020Z,55.72
2022-11-03T21:22:02.467Z,58.70
2022-11-03T21:24:28.775Z,58.75
2022-11-03T21:26:55.158Z,62.55
2022-11-03T21:29:38.891Z,57.58
2022-11-03T21:32:11.388Z,58.50
2022-11-03T21:34:37.941Z,60.42
2022-11-03T21:37:04.925Z,59.97
2022-11-03T21:39:31.680Z,60.67
2022-11-03T21:42:16.603Z,59.63
2022-11-03T21:44:43.007Z,63.50
2022-11-03T21:47:11.245Z,59.05
2022-11-03T21:49:43.514Z,62.47
2022-11-03T21:52:18.095Z,60.72
2022-11-03T21:54:44.899Z,66.43
2022-11-03T21:57:15.241Z,66.47
2022-11-03T21:59:41.714Z,63.53
2022-11-03T22:02:11.818Z,74.85
2022-11-03T22:04:38.221Z,73.03
2022-11-03T22:07:04.681Z,70.88
2022-11-03T22:09:31.018Z,71.60
2022-11-03T22:11:57.336Z,78.32
2022-11-03T22:14:23.968Z,75.78
2022-11-03T22:16:50.333Z,73.43
2022-11-03T22:19:40.595Z,75.95
2022-11-03T22:22:33.419Z,67.88
2022-11-03T22:25:18.828Z,68.18
2022-11-03T22:27:45.954Z,69.53
2022-11-03T22:30:30.896Z,64.82
2022-11-03T22:32:58.000Z,59.67
2022-11-03T22:35:44.061Z,64.97
2022-11-03T22:38:15.190Z,58.78
2022-11-03T22:41:01.758Z,59.25
2022-11-03T22:43:47.068Z,56.22
2022-11-03T22:46:14.899Z,56.25
2022-11-03T22:48:41.211Z,56.75
2022-11-03T22:51:13.025Z,54.05
2022-11-03T22:53:58.439Z,53.55
2022-11-03T22:56:26.513Z,58.53
2022-11-03T22:58:52.893Z,56.97
2022-11-03T23:01:21.511Z,57.00
2022-11-03T23:03:48.842Z,55.95
2022-11-03T23:06:20.418Z,59.83
2022-11-03T23:08:48.547Z,57.42
2022-11-03T23:11:19.699Z,58.67
2022-11-03T23:13:47.809Z,61.30
2022-11-03T23:16:18.592Z,59.35
2022-11-03T23:19:03.959Z,65.78
2022-11-03T23:21:31.085Z,69.95
2022-11-03T23:24:16.041Z,60.20
2022-11-03T23:26:43.042Z,68.47
2022-11-03T23:29:10.301Z,66.82
2022-11-03T23:31:37.335Z,70.10
2022-11-03T23:34:04.918Z,70.65
2022-11-03T23:36:31.400Z,75.85
2022-11-03T23:38:58.942Z,80.40
2022-11-03T23:41:26.494Z,72.63
2022-11-03T23:43:53.109Z,75.85
2022-11-03T23:46:40.533Z,74.65
2022-11-03T23:49:07.519Z,73.18
2022-11-03T23:51:35.201Z,78.32
2022-11-03T23:54:02.442Z,68.45
2022-11-03T23:56:51.826Z,70.72
2022-11-03T23:59:18.213Z,60.92
